Time;durP1;ratioP1;P1;durP2;ratioP2;P2;SDS_P1;SDS_P2;PMS_P1;PMS_P2;Temp;Humidity;BMP_temperature;BMP_pressure;BME280_temperature;BME280_humidity;BME280_pressure;Samples;Min_cycle;Max_cycle;Signal;HPM_P1;HPM_P2
2022/05/27 00:01:33;;;;;;;22.65;4.80;;;;;;;18.36;69.43;102106.63;4960054;28;20537;-61
2022/05/27 00:04:01;;;;;;;17.33;4.38;;;;;;;18.10;70.04;102106.59;4958452;28;20051;-62
2022/05/27 00:06:28;;;;;;;19.90;4.43;;;;;;;18.02;69.61;102116.22;4962409;28;20058;-62
2022/05/27 00:08:53;;;;;;;18.02;4.13;;;;;;;17.87;69.28;102103.00;4963350;28;20050;-61
2022/05/27 00:11:19;;;;;;;17.20;4.45;;;;;;;17.60;69.85;102102.03;4965391;28;20042;-63
2022/05/27 00:13:45;;;;;;;16.70;4.10;;;;;;;17.62;69.38;102092.38;4961062;28;20057;-61
2022/05/27 00:16:12;;;;;;;17.42;3.92;;;;;;;17.49;69.96;102103.72;4955770;28;20157;-62
2022/05/27 00:18:37;;;;;;;15.05;3.88;;;;;;;17.43;69.91;102093.13;4961898;28;20188;-62
2022/05/27 00:21:03;;;;;;;9.73;3.17;;;;;;;17.27;69.74;102104.47;4965599;28;20144;-63
2022/05/27 00:23:29;;;;;;;9.27;2.80;;;;;;;17.28;69.42;102106.22;4964574;28;20532;-63
2022/05/27 00:25:55;;;;;;;10.35;2.80;;;;;;;17.25;69.42;102107.09;4965087;28;20046;-62
2022/05/27 00:28:21;;;;;;;8.57;2.90;;;;;;;17.12;69.61;102097.38;4962181;28;20932;-61
2022/05/27 00:30:46;;;;;;;9.07;2.83;;;;;;;17.15;69.70;102094.72;4964776;28;20042;-63
2022/05/27 00:33:11;;;;;;;9.75;2.92;;;;;;;17.09;69.89;102096.44;4962471;28;20061;-62
2022/05/27 00:35:38;;;;;;;7.30;2.45;;;;;;;17.04;70.15;102096.44;4959061;28;20100;-62
2022/05/27 00:38:03;;;;;;;10.80;2.55;;;;;;;17.04;69.70;102099.06;4956057;28;20034;-62
2022/05/27 00:40:39;;;;;;;5.70;2.70;;;;;;;16.96;69.83;102088.47;4957252;28;20108;-62
2022/05/27 00:43:05;;;;;;;7.03;2.60;;;;;;;17.00;69.78;102092.91;4965438;28;20065;-62
2022/05/27 00:45:34;;;;;;;8.45;2.80;;;;;;;16.92;70.00;102086.69;4960085;28;20521;-62
2022/05/27 00:48:01;;;;;;;10.32;2.85;;;;;;;16.96;70.38;102090.22;4961904;28;20050;-61
2022/05/27 00:50:32;;;;;;;7.70;3.03;;;;;;;16.95;70.15;102088.47;4957923;28;20465;-62
2022/05/27 00:52:58;;;;;;;12.57;3.25;;;;;;;17.02;69.82;102084.97;4959884;28;20085;-62
2022/05/27 00:55:29;;;;;;;12.45;3.17;;;;;;;17.06;70.07;102080.63;4957566;28;20517;-63
2022/05/27 00:58:15;;;;;;;13.82;3.60;;;;;;;17.08;70.17;102092.06;4958020;28;20587;-61
2022/05/27 01:00:40;;;;;;;12.40;3.50;;;;;;;17.08;71.19;102085.03;4965067;28;20372;-61
2022/05/27 01:03:10;;;;;;;17.05;4.07;;;;;;;17.10;71.18;102092.94;4946467;28;20932;-61
2022/05/27 01:05:35;;;;;;;14.63;4.03;;;;;;;17.16;70.81;102080.69;4960002;28;20104;-63
2022/05/27 01:08:05;;;;;;;16.38;4.40;;;;;;;17.20;71.11;102079.81;4966792;28;20037;-62
2022/05/27 01:10:52;;;;;;;16.67;4.40;;;;;;;17.28;71.05;102085.13;4962597;28;20127;-62
2022/05/27 01:13:34;;;;;;;21.95;4.75;;;;;;;17.34;71.14;102083.41;4962345;28;20129;-63
2022/05/27 01:16:27;;;;;;;19.58;4.75;;;;;;;17.33;71.67;102084.28;4960889;28;20564;-62
2022/05/27 01:22:58;;;;;;;24.05;4.93;;;;;;;17.39;71.79;102076.41;4950228;28;20496;-62
2022/05/27 01:25:51;;;;;;;20.60;5.03;;;;;;;17.46;71.79;102087.84;4961446;28;20042;-63
2022/05/27 01:28:36;;;;;;;21.05;4.32;;;;;;;17.49;71.63;102084.38;4952048;28;20054;-62
2022/05/27 01:31:17;;;;;;;19.50;4.15;;;;;;;17.53;71.58;102086.13;4959919;28;20156;-62
2022/05/27 01:33:51;;;;;;;17.70;4.07;;;;;;;17.55;71.09;102082.63;4961255;28;20053;-62
2022/05/27 01:36:37;;;;;;;19.95;4.03;;;;;;;17.53;70.83;102072.94;4950401;28;20335;-62
2022/05/27 01:39:12;;;;;;;17.73;3.78;;;;;;;17.45;70.45;102078.19;4960337;28;20056;-62
2022/05/27 01:41:43;;;;;;;21.80;4.30;;;;;;;17.37;70.42;102072.91;4961876;28;20608;-62
2022/05/27 01:44:26;;;;;;;17.27;3.70;;;;;;;17.26;71.23;102077.22;4957940;28;20100;-62
2022/05/27 01:46:51;;;;;;;23.88;4.13;;;;;;;17.32;71.19;102071.97;4953415;28;20439;-63
2022/05/27 01:49:33;;;;;;;13.63;3.65;;;;;;;17.37;71.16;102064.09;4959986;28;20445;-62
2022/05/27 01:51:59;;;;;;;14.35;3.92;;;;;;;17.36;71.35;102075.53;4960643;28;20371;-62
2022/05/27 01:54:43;;;;;;;15.70;3.75;;;;;;;17.35;71.40;102077.28;4958508;28;20125;-62
2022/05/27 01:57:25;;;;;;;19.45;3.88;;;;;;;17.41;71.09;102074.66;4966156;28;20049;-62
2022/05/27 02:00:04;;;;;;;15.60;3.42;;;;;;;17.39;71.07;102075.53;4961976;28;20120;-63
2022/05/27 02:02:31;;;;;;;13.63;3.42;;;;;;;17.44;70.87;102079.09;4960841;28;20050;-63
2022/05/27 02:04:59;;;;;;;15.48;4.00;;;;;;;17.37;70.90;102069.38;4972912;28;20042;-62
2022/05/27 02:07:56;;;;;;;16.10;3.67;;;;;;;17.34;70.71;102064.97;4967024;28;20042;-63
2022/05/27 02:10:30;;;;;;;18.65;3.90;;;;;;;17.26;70.40;102056.13;4950335;28;20081;-62
2022/05/27 02:13:10;;;;;;;19.60;3.80;;;;;;;17.08;71.20;102061.31;4964695;28;21554;-62
2022/05/27 02:15:41;;;;;;;12.18;3.92;;;;;;;17.13;70.60;102062.25;4962234;28;20046;-63
2022/05/27 02:18:20;;;;;;;18.85;3.50;;;;;;;17.05;70.61;102071.84;4963776;28;20133;-62
2022/05/27 02:20:52;;;;;;;16.05;3.78;;;;;;;16.94;70.72;102070.91;4966047;28;20883;-63
2022/05/27 02:23:17;;;;;;;12.13;3.60;;;;;;;16.88;71.03;102076.13;4967761;28;20056;-62
2022/05/27 02:25:45;;;;;;;11.93;3.80;;;;;;;16.85;71.46;102076.09;4960510;28;20046;-61
2022/05/27 02:28:19;;;;;;;13.02;3.40;;;;;;;16.85;71.31;102071.72;4960107;28;20169;-62
2022/05/27 02:30:49;;;;;;;14.75;3.67;;;;;;;16.72;71.62;102055.81;4972915;28;20103;-62
2022/05/27 02:36:07;;;;;;;13.35;3.65;;;;;;;16.71;71.83;102059.34;4960984;28;20540;-62
2022/05/27 02:38:33;;;;;;;15.35;3.80;;;;;;;16.75;71.60;102064.63;4964199;28;20054;-62
2022/05/27 02:41:14;;;;;;;12.48;3.45;;;;;;;16.77;71.57;102062.88;4963775;28;20050;-62
2022/05/27 02:43:48;;;;;;;15.18;3.63;;;;;;;16.79;71.45;102069.03;4964644;28;20133;-62
2022/05/27 02:46:13;;;;;;;13.73;3.63;;;;;;;16.83;71.42;102067.31;4959780;28;20043;-63
2022/05/27 02:49:00;;;;;;;11.73;3.35;;;;;;;16.84;71.47;102064.69;4965571;28;20061;-63
2022/05/27 02:51:37;;;;;;;15.88;3.30;;;;;;;16.84;71.29;102062.03;4968095;28;20047;-62
2022/05/27 02:54:11;;;;;;;15.88;3.55;;;;;;;16.85;71.15;102061.19;4956404;28;20808;-62
2022/05/27 02:56:50;;;;;;;11.68;3.20;;;;;;;16.83;70.99;102069.97;4970134;28;20062;-63
2022/05/27 02:59:18;;;;;;;12.93;3.30;;;;;;;16.78;70.30;102072.53;4948233;28;20204;-62
2022/05/27 03:01:47;;;;;;;10.05;3.38;;;;;;;16.79;70.67;102066.41;4965238;28;20054;-62
2022/05/27 03:04:13;;;;;;;11.20;3.50;;;;;;;16.80;71.03;102068.16;4957079;28;20038;-62
2022/05/27 03:07:03;;;;;;;10.52;3.28;;;;;;;16.73;71.34;102066.38;4963847;28;20519;-62
2022/05/27 03:09:54;;;;;;;11.65;3.60;;;;;;;16.82;71.06;102066.44;4948288;28;20053;-61
2022/05/27 03:12:50;;;;;;;10.73;3.58;;;;;;;16.83;71.37;102069.97;4956256;28;23264;-62
2022/05/27 03:15:47;;;;;;;16.95;3.60;;;;;;;16.85;71.40;102069.09;4962850;28;20294;-62
2022/05/27 03:18:28;;;;;;;12.60;3.50;;;;;;;16.85;71.21;102069.09;4947149;28;20399;-62
2022/05/27 03:21:20;;;;;;;15.18;3.35;;;;;;;16.77;71.61;102076.03;4964700;28;20945;-62
2022/05/27 03:24:02;;;;;;;11.82;3.63;;;;;;;16.89;71.29;102068.25;4926004;28;20129;-62
2022/05/27 03:26:41;;;;;;;9.50;2.85;;;;;;;16.97;71.18;102074.44;4964434;28;20544;-63
2022/05/27 03:29:23;;;;;;;11.35;3.17;;;;;;;17.02;71.01;102075.31;4969480;28;20080;-63
2022/05/27 03:31:58;;;;;;;10.40;3.20;;;;;;;16.99;71.22;102066.53;4967701;28;20064;-63
2022/05/27 03:34:46;;;;;;;14.35;3.30;;;;;;;16.92;71.34;102073.53;4964550;28;20066;-62
2022/05/27 03:37:20;;;;;;;10.52;3.30;;;;;;;17.10;70.54;102079.78;4947926;28;20957;-62
2022/05/27 03:40:11;;;;;;;11.23;3.20;;;;;;;17.20;70.00;102069.28;4964512;28;20230;-63
2022/05/27 03:42:39;;;;;;;14.07;3.20;;;;;;;17.13;70.06;102077.16;4960102;28;20050;-62
2022/05/27 03:45:09;;;;;;;13.38;3.53;;;;;;;17.02;69.91;102080.59;4955008;28;20421;-63
2022/05/27 03:47:36;;;;;;;9.63;3.03;;;;;;;17.15;69.26;102080.66;4963856;28;20505;-63
2022/05/27 03:50:03;;;;;;;9.85;2.95;;;;;;;17.16;69.18;102085.97;4955632;28;20126;-63
2022/05/27 03:52:44;;;;;;;8.98;3.00;;;;;;;17.15;68.86;102083.31;4963130;28;20144;-62
2022/05/27 03:55:12;;;;;;;8.98;2.92;;;;;;;17.22;68.03;102083.34;4967387;28;20446;-63
2022/05/27 03:57:38;;;;;;;10.13;2.75;;;;;;;17.17;67.74;102082.47;4960939;28;20138;-62
2022/05/27 04:00:05;;;;;;;9.35;2.80;;;;;;;17.09;67.38;102086.78;4959069;28;20097;-62
2022/05/27 04:02:30;;;;;;;8.85;2.85;;;;;;;17.04;67.12;102086.78;4964570;28;20043;-63
2022/05/27 04:04:55;;;;;;;9.60;3.00;;;;;;;17.02;66.95;102083.22;4970210;28;20651;-62
2022/05/27 04:07:21;;;;;;;12.07;2.72;;;;;;;17.00;66.75;102089.38;4962467;28;20505;-63
2022/05/27 04:09:46;;;;;;;8.73;2.60;;;;;;;17.07;66.20;102087.66;4961752;28;20052;-63
2022/05/27 04:12:12;;;;;;;9.77;2.80;;;;;;;16.97;66.19;102084.97;4951832;28;20039;-61
2022/05/27 04:14:38;;;;;;;9.63;2.95;;;;;;;17.07;65.76;102090.31;4958203;28;20741;-63
2022/05/27 04:19:47;;;;;;;7.65;2.80;;;;;;;17.05;65.39;102090.28;4963519;28;20061;-62
2022/05/27 04:22:13;;;;;;;8.45;2.88;;;;;;;17.05;65.62;102092.91;4953581;28;20581;-63
2022/05/27 04:24:39;;;;;;;7.72;2.47;;;;;;;17.13;65.43;102099.13;4967699;28;20547;-63
2022/05/27 04:27:13;;;;;;;9.30;2.70;;;;;;;17.12;65.13;102089.47;4968954;28;20042;-63
2022/05/27 04:29:46;;;;;;;6.63;2.55;;;;;;;17.12;65.30;102092.09;4961631;28;20154;-62
2022/05/27 04:32:12;;;;;;;9.27;2.83;;;;;;;17.11;65.01;102090.31;4951043;28;20054;-62
2022/05/27 04:34:37;;;;;;;8.82;2.65;;;;;;;17.14;64.78;102090.31;4963124;28;20409;-63
2022/05/27 04:37:03;;;;;;;7.60;2.72;;;;;;;17.27;64.41;102091.28;4965021;28;20048;-63
2022/05/27 04:39:29;;;;;;;10.63;2.97;;;;;;;17.39;64.64;102099.25;4959740;28;20073;-62
2022/05/27 04:41:55;;;;;;;5.85;2.22;;;;;;;17.52;64.44;102098.44;4964046;28;20576;-63
2022/05/27 04:44:21;;;;;;;10.73;2.80;;;;;;;17.69;64.04;102098.53;4959229;28;20440;-64
2022/05/27 04:46:46;;;;;;;9.45;2.70;;;;;;;17.84;63.83;102102.13;4969552;28;20080;-62
2022/05/27 04:49:50;;;;;;;9.20;2.67;;;;;;;18.45;62.56;102104.84;4957271;28;20049;-62
2022/05/27 04:51:58;;;;;;;9.25;2.67;;;;;;;19.13;61.47;102105.72;4957958;28;20102;-62
2022/05/27 04:54:24;;;;;;;7.35;2.50;;;;;;;19.89;58.96;102113.38;4963049;28;20042;-63
2022/05/27 04:56:49;;;;;;;8.45;2.85;;;;;;;20.12;56.39;102120.31;4968518;28;20048;-62
2022/05/27 04:59:14;;;;;;;8.07;2.80;;;;;;;20.29;56.36;102108.72;4963620;28;20042;-62
2022/05/27 05:01:40;;;;;;;9.63;2.90;;;;;;;20.08;56.30;102110.63;4963515;28;20054;-62
2022/05/27 05:04:05;;;;;;;9.60;2.80;;;;;;;19.82;57.72;102110.75;4966088;28;20064;-62
2022/05/27 05:06:31;;;;;;;8.45;2.80;;;;;;;19.64;57.84;102107.34;4943951;28;20051;-63
2022/05/27 05:08:57;;;;;;;10.43;2.63;;;;;;;19.59;57.62;102106.47;4964706;28;20050;-63
2022/05/27 05:11:22;;;;;;;7.85;2.65;;;;;;;19.77;57.60;102115.19;4968318;28;20052;-63
2022/05/27 05:13:47;;;;;;;8.57;2.70;;;;;;;19.47;59.55;102119.75;4962201;28;20046;-62
2022/05/27 05:16:13;;;;;;;9.07;2.78;;;;;;;19.41;59.22;102129.41;4959471;28;20133;-62
2022/05/27 05:18:38;;;;;;;8.93;2.90;;;;;;;19.35;58.65;102126.81;4963163;28;20084;-62
2022/05/27 05:21:04;;;;;;;6.50;2.67;;;;;;;19.38;58.33;102129.44;4959056;28;20201;-62
2022/05/27 05:23:29;;;;;;;8.27;2.90;;;;;;;19.34;58.21;102138.25;4955762;28;20057;-62
2022/05/27 05:25:56;;;;;;;8.70;2.60;;;;;;;19.29;58.89;102128.56;4964849;28;20046;-62
2022/05/27 05:28:22;;;;;;;7.30;2.45;;;;;;;19.29;58.38;102134.75;4937735;28;22888;-64
2022/05/27 05:30:47;;;;;;;7.82;2.80;;;;;;;19.18;58.68;102136.53;4963667;28;20042;-62
2022/05/27 05:33:12;;;;;;;9.40;2.72;;;;;;;19.03;58.89;102134.78;4959702;28;20043;-63
2022/05/27 05:35:38;;;;;;;10.63;2.65;;;;;;;18.99;59.79;102148.91;4964920;28;20042;-62
2022/05/27 05:38:04;;;;;;;8.90;2.80;;;;;;;18.82;58.52;102144.50;4960082;28;20042;-63
2022/05/27 05:40:30;;;;;;;12.02;2.90;;;;;;;19.00;58.27;102148.03;4967016;28;20413;-62
2022/05/27 05:42:55;;;;;;;9.32;2.88;;;;;;;18.95;59.37;102147.16;4963405;28;20522;-62
2022/05/27 05:45:21;;;;;;;8.60;2.70;;;;;;;19.20;58.56;102145.34;4958116;28;21281;-62
2022/05/27 05:47:47;;;;;;;11.50;2.88;;;;;;;19.53;57.53;102156.75;4962676;28;20045;-62
2022/05/27 05:50:14;;;;;;;8.82;2.40;;;;;;;19.79;55.72;102152.25;4952767;28;20042;-63
2022/05/27 05:52:40;;;;;;;13.13;2.53;;;;;;;20.18;54.89;102160.00;4966105;28;20272;-62
2022/05/27 05:55:06;;;;;;;8.45;2.60;;;;;;;20.24;53.42;102154.66;4964146;28;20050;-63
2022/05/27 05:57:31;;;;;;;8.95;2.65;;;;;;;20.43;52.44;102159.88;4963425;28;20606;-63
2022/05/27 05:59:59;;;;;;;7.88;2.42;;;;;;;20.10;54.17;102161.81;4959310;28;20161;-62
2022/05/27 06:02:25;;;;;;;12.38;2.70;;;;;;;19.99;53.59;102163.63;4953952;28;20074;-62
2022/05/27 06:04:51;;;;;;;11.05;2.67;;;;;;;19.82;54.69;102168.13;4962155;28;20174;-62
2022/05/27 06:07:16;;;;;;;11.13;3.05;;;;;;;20.15;54.02;102164.41;4964591;28;20489;-63
2022/05/27 06:09:42;;;;;;;11.77;2.55;;;;;;;20.90;52.22;102165.69;4961115;28;20066;-62
2022/05/27 06:12:08;;;;;;;8.93;2.50;;;;;;;20.75;52.75;102168.44;4958484;28;20602;-63
2022/05/27 06:14:35;;;;;;;9.55;2.42;;;;;;;20.83;53.84;102171.03;4963760;28;20513;-62
2022/05/27 06:17:00;;;;;;;9.20;2.75;;;;;;;20.88;52.05;102164.81;4966922;28;20053;-63
2022/05/27 06:19:26;;;;;;;9.02;2.45;;;;;;;21.19;52.31;102167.22;4959943;28;20268;-62
2022/05/27 06:21:51;;;;;;;11.25;2.33;;;;;;;21.65;51.03;102165.81;4957738;28;20564;-63
2022/05/27 06:24:16;;;;;;;9.77;2.30;;;;;;;22.65;47.97;102172.41;4957138;28;20239;-63
2022/05/27 06:26:42;;;;;;;12.25;2.70;;;;;;;23.05;45.87;102161.16;4959858;28;20422;-64
2022/05/27 06:34:36;;;;;;;8.68;2.72;;;;;;;23.57;42.55;102192.13;4968142;28;20041;-63
2022/05/27 06:37:05;;;;;;;12.10;2.65;;;;;;;22.74;40.04;102194.47;4962323;28;20461;-63
2022/05/27 06:39:34;;;;;;;8.13;2.55;;;;;;;22.07;38.51;102188.34;4964456;28;20042;-63
2022/05/27 06:42:00;;;;;;;11.25;2.50;;;;;;;22.11;39.23;102205.97;4962561;28;20097;-63
2022/05/27 06:44:25;;;;;;;7.38;2.10;;;;;;;21.68;39.58;102196.75;4958210;28;20813;-61
2022/05/27 06:46:52;;;;;;;8.32;2.42;;;;;;;21.70;38.30;102203.81;4969327;28;20049;-62
2022/05/27 06:49:19;;;;;;;8.68;2.42;;;;;;;21.74;38.55;102205.53;4968284;28;20654;-61
2022/05/27 06:51:46;;;;;;;7.22;2.50;;;;;;;21.95;39.62;102204.44;4945570;28;20571;-63
2022/05/27 06:54:13;;;;;;;11.52;2.67;;;;;;;22.05;39.53;102206.06;4958564;28;20505;-62
2022/05/27 06:56:41;;;;;;;10.80;2.97;;;;;;;21.95;40.72;102214.13;4962503;28;20050;-62
2022/05/27 06:59:07;;;;;;;9.93;2.72;;;;;;;21.54;41.17;102212.81;4960330;28;20081;-61
2022/05/27 07:01:33;;;;;;;9.77;2.58;;;;;;;21.90;40.43;102219.47;4964010;28;20177;-62
2022/05/27 07:03:59;;;;;;;8.40;2.70;;;;;;;22.06;38.70;102212.25;4946325;28;20451;-61
2022/05/27 07:06:33;;;;;;;14.20;2.97;;;;;;;21.68;40.44;102210.03;4961657;28;20651;-63
2022/05/27 07:09:01;;;;;;;;;;;;;;;22.32;37.98;102214.56;4964213;28;20038;-62
2022/05/27 07:11:26;;;;;;;10.90;2.95;;;;;;;22.80;36.93;102202.34;4967997;28;19925;-63
2022/05/27 07:13:52;;;;;;;11.32;2.42;;;;;;;23.57;37.54;102208.09;4965938;28;20401;-63
2022/05/27 07:16:17;;;;;;;11.85;2.60;;;;;;;23.90;34.87;102202.09;4958750;28;20432;-62
2022/05/27 07:18:43;;;;;;;10.98;2.50;;;;;;;24.63;32.25;102209.38;4970084;28;20039;-62
2022/05/27 07:21:08;;;;;;;11.52;2.20;;;;;;;24.07;34.61;102213.28;4963398;28;20047;-62
2022/05/27 07:23:34;;;;;;;9.82;2.70;;;;;;;23.44;33.76;102210.06;4962264;28;20050;-63
2022/05/27 07:26:00;;;;;;;8.13;2.50;;;;;;;24.20;33.88;102209.47;4961004;28;20068;-63
2022/05/27 07:28:26;;;;;;;13.60;2.97;;;;;;;24.58;32.94;102216.56;4954062;28;20512;-64
2022/05/27 07:30:53;;;;;;;9.00;2.28;;;;;;;24.76;33.74;102219.75;4957799;28;20361;-62
2022/05/27 07:33:20;;;;;;;11.88;2.53;;;;;;;24.51;35.77;102222.13;4960119;28;20146;-63
2022/05/27 07:35:46;;;;;;;10.18;2.67;;;;;;;23.93;36.68;102220.66;4961443;28;20069;-63
2022/05/27 07:38:11;;;;;;;13.30;2.97;;;;;;;23.33;35.93;102231.56;4954340;28;20393;-63
2022/05/27 07:40:36;;;;;;;9.98;2.78;;;;;;;22.45;40.35;102235.59;4961191;28;20038;-63
2022/05/27 07:43:02;;;;;;;11.35;2.75;;;;;;;22.45;40.61;102234.72;4963285;28;20050;-62
2022/05/27 07:45:27;;;;;;;13.00;2.95;;;;;;;22.65;39.49;102238.88;4965994;28;20034;-63
2022/05/27 07:47:56;;;;;;;10.02;2.70;;;;;;;22.78;39.20;102230.72;4964534;28;20042;-63
2022/05/27 07:50:23;;;;;;;13.60;3.08;;;;;;;22.38;41.28;102241.06;4954699;28;20415;-65
2022/05/27 07:52:49;;;;;;;12.23;2.97;;;;;;;22.60;40.00;102243.38;4959184;28;20046;-64
2022/05/27 07:55:15;;;;;;;8.27;2.60;;;;;;;22.07;41.34;102245.88;4943865;28;20061;-63
2022/05/27 07:57:42;;;;;;;9.90;2.70;;;;;;;22.08;40.34;102243.19;4958058;28;20034;-63
2022/05/27 08:00:12;;;;;;;8.63;3.10;;;;;;;22.28;39.45;102250.91;4946958;28;20382;-62
2022/05/27 08:02:38;;;;;;;10.82;2.85;;;;;;;22.04;39.31;102246.78;4962883;28;20579;-63
2022/05/27 08:05:03;;;;;;;9.05;2.80;;;;;;;21.93;39.97;102253.09;4964885;28;20050;-62
2022/05/27 08:07:29;;;;;;;12.02;2.50;;;;;;;21.87;38.76;102264.66;4966345;28;20053;-62
2022/05/27 08:09:54;;;;;;;9.15;2.65;;;;;;;22.41;36.00;102252.50;4960915;28;20042;-64
2022/05/27 08:12:19;;;;;;;8.82;2.30;;;;;;;23.97;36.11;102250.81;4956446;28;20100;-64
2022/05/27 08:14:45;;;;;;;10.20;2.63;;;;;;;25.71;32.50;102246.66;4964423;28;20133;-64
2022/05/27 08:17:10;;;;;;;8.07;2.28;;;;;;;26.97;29.73;102236.59;4966758;28;20640;-62
2022/05/27 08:19:36;;;;;;;9.27;2.67;;;;;;;26.98;29.16;102244.59;4966421;28;20037;-63
2022/05/27 08:22:03;;;;;;;12.63;2.80;;;;;;;27.71;27.21;102243.84;4955011;28;20188;-66
2022/05/27 08:24:28;;;;;;;8.40;2.20;;;;;;;28.04;27.31;102239.06;4963327;28;20174;-64
2022/05/27 08:28:54;;;;;;;9.13;2.55;;;;;;;27.90;25.96;102250.31;5035379;28;20651;-63
2022/05/27 08:31:20;;;;;;;10.68;2.80;;;;;;;26.87;27.73;102251.19;5034204;27;20250;-63
2022/05/27 08:39:09;;;;;;;7.63;2.50;;;;;;;25.67;30.82;102263.69;5040659;28;20588;-62
2022/05/27 08:41:57;;;;;;;11.05;2.53;;;;;;;25.20;31.36;102270.22;5041603;28;20856;-64
2022/05/27 08:44:36;;;;;;;10.30;2.60;;;;;;;25.15;30.99;102265.94;5037785;28;20507;-64
2022/05/27 08:47:30;;;;;;;8.65;2.60;;;;;;;25.19;30.52;102273.81;5045238;28;20045;-64
2022/05/27 08:50:09;;;;;;;9.35;2.42;;;;;;;24.34;31.46;102269.56;5038838;28;20130;-63
2022/05/27 08:52:43;;;;;;;8.50;2.58;;;;;;;24.15;33.11;102279.75;5035052;28;20091;-62
2022/05/27 08:59:26;;;;;;;;;;;;;;;23.16;34.17;102285.97;5020807;28;20032;-64
2022/05/27 09:00:51;;;;;;;11.45;2.60;;;;;;;23.75;32.65;102292.94;5023806;28;20064;-65
2022/05/27 09:03:16;;;;;;;10.77;2.67;;;;;;;24.09;33.68;102293.19;5025440;28;20053;-63
2022/05/27 09:05:54;;;;;;;10.68;3.03;;;;;;;23.57;33.61;102287.97;5017240;28;20041;-63
2022/05/27 09:08:22;;;;;;;12.95;2.90;;;;;;;23.14;34.10;102291.31;4997030;28;20528;-64
2022/05/27 09:11:16;;;;;;;13.95;3.13;;;;;;;22.89;35.87;102298.81;4998677;28;20034;-66
2022/05/27 09:13:56;;;;;;;12.25;2.83;;;;;;;23.27;35.87;102305.31;5003602;28;20060;-63
2022/05/27 09:16:24;;;;;;;12.35;3.10;;;;;;;23.12;35.71;102300.22;4998203;28;20057;-65
2022/05/27 09:19:05;;;;;;;11.57;2.80;;;;;;;23.12;35.64;102297.56;4996825;28;20067;-65
2022/05/27 09:21:49;;;;;;;8.82;2.70;;;;;;;23.35;35.54;102301.63;5012051;28;20045;-62
2022/05/27 09:24:33;;;;;;;9.88;2.75;;;;;;;23.46;35.72;102293.44;5014942;28;20050;-64
2022/05/27 09:27:17;;;;;;;16.23;3.08;;;;;;;23.20;36.41;102309.84;5006880;28;20943;-63
2022/05/27 09:29:55;;;;;;;10.15;2.75;;;;;;;23.29;35.24;102311.50;5012028;28;20045;-64
2022/05/27 09:32:38;;;;;;;8.25;2.80;;;;;;;23.62;35.93;102300.28;4996649;28;22108;-63
2022/05/27 09:35:12;;;;;;;14.38;3.30;;;;;;;23.33;36.13;102300.75;5004640;28;20701;-64
2022/05/27 09:37:43;;;;;;;10.25;2.70;;;;;;;23.52;35.93;102304.03;4996730;28;20470;-65
2022/05/27 09:40:27;;;;;;;11.07;2.83;;;;;;;23.63;36.04;102306.47;4996795;28;20052;-63
2022/05/27 09:43:04;;;;;;;16.13;3.17;;;;;;;23.19;36.54;102309.84;5002128;28;20076;-64
2022/05/27 09:45:30;;;;;;;9.73;2.88;;;;;;;23.57;35.22;102301.28;5001482;28;20092;-63
2022/05/27 09:48:00;;;;;;;9.95;2.95;;;;;;;23.68;35.29;102310.81;5004694;28;20433;-63
2022/05/27 09:50:31;;;;;;;13.90;3.45;;;;;;;23.56;36.09;102313.69;4980738;28;20061;-64
2022/05/27 09:52:58;;;;;;;14.10;3.20;;;;;;;23.18;34.39;102322.28;4995136;28;20496;-64
2022/05/27 09:55:29;;;;;;;16.10;3.22;;;;;;;24.06;35.56;102309.22;4984579;28;20493;-63
2022/05/27 09:58:01;;;;;;;10.48;2.83;;;;;;;23.85;34.45;102323.81;4980465;28;20050;-64
2022/05/27 10:00:53;;;;;;;11.40;2.88;;;;;;;24.44;33.59;102322.69;4991593;28;20136;-64
2022/05/27 10:03:25;;;;;;;14.32;3.45;;;;;;;24.02;34.18;102323.50;4991932;28;20065;-64
2022/05/27 10:05:56;;;;;;;15.35;3.20;;;;;;;24.27;33.79;102327.50;4986391;28;20564;-62
2022/05/27 10:08:53;;;;;;;12.55;3.33;;;;;;;23.72;34.79;102330.28;4987103;28;20474;-64
2022/05/27 10:11:27;;;;;;;16.00;3.70;;;;;;;22.95;36.38;102343.03;4992613;28;20258;-64
2022/05/27 10:14:17;;;;;;;13.73;3.17;;;;;;;22.70;37.63;102342.47;4991010;28;20524;-63
2022/05/27 10:16:58;;;;;;;14.35;3.03;;;;;;;22.11;36.16;102328.16;4992451;28;20038;-64
2022/05/27 10:19:25;;;;;;;16.13;3.03;;;;;;;22.14;35.57;102324.59;4987021;28;20092;-64
2022/05/27 10:21:50;;;;;;;15.10;3.03;;;;;;;22.59;37.48;102344.41;4993872;28;20073;-64
2022/05/27 10:24:29;;;;;;;14.63;2.83;;;;;;;22.84;38.27;102339.66;4979543;28;20172;-63
2022/05/27 10:27:10;;;;;;;12.35;3.00;;;;;;;22.95;37.83;102335.94;4983103;28;20610;-63
2022/05/27 10:29:59;;;;;;;10.07;2.50;;;;;;;23.01;34.45;102335.84;4991034;28;20042;-62
2022/05/27 10:32:31;;;;;;;11.73;2.83;;;;;;;22.62;33.30;102347.91;4985700;28;20056;-64
2022/05/27 10:34:58;;;;;;;10.23;2.50;;;;;;;22.59;34.78;102347.06;4988308;28;20396;-63
2022/05/27 12:25:57;;;;;;;7.70;2.10;;;;;;;21.74;34.37;102407.28;5073234;27;20739;-62
2022/05/27 12:28:29;;;;;;;12.07;2.22;;;;;;;21.50;36.13;102404.81;5046605;27;21883;-64
2022/05/27 12:30:56;;;;;;;9.75;2.00;;;;;;;21.94;34.93;102411.53;5057986;27;89664;-64
2022/05/27 12:33:25;;;;;;;12.45;2.42;;;;;;;22.05;34.97;102405.25;5010155;28;20079;-64
2022/05/27 12:36:01;;;;;;;11.48;2.50;;;;;;;22.04;36.50;102407.91;5028258;28;20080;-64
2022/05/27 12:38:30;;;;;;;9.60;2.40;;;;;;;21.83;35.29;102401.00;5028873;28;20069;-64
2022/05/27 12:41:01;;;;;;;12.85;2.30;;;;;;;21.60;36.38;102406.50;5024898;28;20031;-65
2022/05/27 12:43:30;;;;;;;11.98;2.40;;;;;;;21.62;35.68;102418.00;5030071;28;21024;-65
2022/05/27 12:46:02;;;;;;;11.45;2.17;;;;;;;21.24;36.22;102420.91;5030565;28;20047;-63
2022/05/27 12:48:40;;;;;;;10.43;2.05;;;;;;;21.09;36.49;102412.13;5030616;28;20087;-63
2022/05/27 12:51:14;;;;;;;10.65;2.53;;;;;;;21.31;34.86;102429.69;5025503;28;20508;-62
2022/05/27 12:53:45;;;;;;;;;;;;;;;21.52;34.16;102410.13;5029269;28;20044;-64
2022/05/27 13:02:15;;;;;;;8.95;2.03;;;;;;;21.71;36.61;102428.50;5020311;28;20048;-64
2022/05/27 13:04:49;;;;;;;15.10;2.45;;;;;;;22.05;35.59;102428.28;5015470;28;20036;-64
2022/05/27 13:07:21;;;;;;;14.02;2.70;;;;;;;21.93;36.01;102431.00;5025886;27;20053;-63
2022/05/27 13:09:48;;;;;;;12.32;2.30;;;;;;;21.75;36.06;102432.94;5022110;28;20087;-64
2022/05/27 13:12:47;;;;;;;7.15;1.98;;;;;;;21.61;35.35;102428.59;5022105;28;20048;-63
2022/05/27 13:15:31;;;;;;;10.65;2.40;;;;;;;21.50;36.32;102427.81;5020059;28;20271;-67
2022/05/27 13:18:18;;;;;;;9.20;2.40;;;;;;;21.54;36.21;102425.13;5023969;28;20036;-63
2022/05/27 13:21:00;;;;;;;9.05;2.00;;;;;;;21.38;36.51;102437.63;5022662;28;20048;-64
2022/05/27 13:23:28;;;;;;;8.35;1.98;;;;;;;21.34;36.71;102435.00;5025130;28;20117;-65
2022/05/27 13:26:18;;;;;;;11.20;2.15;;;;;;;21.36;37.26;102436.75;5028067;28;20056;-64
2022/05/27 13:28:53;;;;;;;10.90;2.25;;;;;;;21.48;37.65;102426.94;5035595;28;20047;-64
2022/05/27 13:31:24;;;;;;;9.93;2.45;;;;;;;21.51;37.14;102427.81;5039244;28;20568;-65
2022/05/27 13:33:56;;;;;;;12.05;2.53;;;;;;;21.39;37.42;102422.59;5031058;28;20044;-64
2022/05/27 13:36:25;;;;;;;11.05;2.25;;;;;;;21.49;36.20;102432.22;5027504;28;20407;-66
2022/05/27 13:39:06;;;;;;;13.65;2.40;;;;;;;21.58;35.74;102433.97;5030195;28;20722;-64
2022/05/27 13:41:52;;;;;;;8.50;2.58;;;;;;;21.56;36.05;102436.63;5033745;28;20444;-64
2022/05/27 13:44:23;;;;;;;12.82;2.38;;;;;;;21.45;35.86;102434.03;5028356;28;20159;-64
2022/05/27 13:46:54;;;;;;;14.05;2.60;;;;;;;21.25;37.08;102429.75;5041025;28;20111;-64
2022/05/27 13:49:37;;;;;;;11.48;2.30;;;;;;;21.23;35.71;102440.34;5042544;28;20055;-63
2022/05/27 13:52:32;;;;;;;12.30;2.40;;;;;;;21.03;37.09;102442.22;5032106;28;20144;-63
2022/05/27 13:55:09;;;;;;;11.07;2.20;;;;;;;21.05;38.86;102441.31;5034097;28;20307;-65
2022/05/27 13:57:36;;;;;;;9.35;2.10;;;;;;;21.29;37.64;102447.38;5037016;28;20056;-64
2022/05/27 14:00:06;;;;;;;8.52;2.05;;;;;;;21.37;37.09;102441.16;5015032;28;20044;-64
2022/05/27 14:02:36;;;;;;;11.30;2.13;;;;;;;21.55;36.76;102444.56;5017954;28;20272;-64